Ship Status Report: callsign AMOUK29

sailwx.info

Track history (hours):
 
Tides and Currents Weather Stations Pressure Air Temp Water Temp Dewpoint Dewpoint Depression Visibility Wind Speed Wind Dir Waves Ship Positions

Callsign AMOUK29 (name unknown)

Last reported at 2015-Mar-02 01:00 UTC. Time now 2015-Mar-02 03:35 UTC.
Position N 54°36' W 005°24'.

Barometer 994.7 mb
Air temperature 2.9 ° C
Dewpoint -0.4 ° C

Date/timePositionNaut miles runAvg speedWind from/ knotsBaromVisibWave heightAir tempDewpointWater temp
2015-Mar-02 01:00N 54°36' W 005°24'9 9.2 994.7 2.9-0.4
2015-Mar-02 00:00N 54°42' W 005°36'7 6.9 995.2 2.6-0.4
2015-Mar-01 23:00N 54°42' W 005°48'7 6.9 994.1 4.3 0.4
2015-Mar-01 22:00N 54°36' W 005°54'0 0.0 994.4 2.7-0.8
2015-Mar-01 20:00N 54°36' W 005°54'0 0.0 993.2 3.2-1.1
2015-Mar-01 17:00N 54°36' W 005°54'0 0.0 991.3 4.3-1.1
2015-Mar-01 16:00N 54°36' W 005°54'0 0.0 991.2 5.0 1.2
2015-Mar-01 14:00N 54°36' W 005°54'0 0.0 991.0 4.2 1.0
2015-Mar-01 13:00N 54°36' W 005°54'0 0.0 990.7 6.8 0.2
2015-Mar-01 10:00N 54°36' W 005°54'0 0.0 991.6 5.4 0.6
2015-Mar-01 09:00N 54°36' W 005°54'0 0.0 990.9 4.2 0.2
2015-Mar-01 06:00N 54°36' W 005°54'0 0.0 989.9 3.9 1.2
2015-Mar-01 04:00N 54°36' W 005°54'0 0.0 988.9 4.6 1.4
2015-Mar-01 02:00N 54°36' W 005°54'0 0.0 988.3 5.2 2.2
2015-Mar-01 00:00N 54°36' W 005°54'0 0.0 986.1 6.4 2.2
2015-Feb-28 23:00N 54°36' W 005°54'0 0.0 984.9 7.1 2.6
2015-Feb-28 22:00N 54°36' W 005°54'0 0.0 983.6 8.0 3.2
2015-Feb-28 20:00N 54°36' W 005°54'0 0.0 981.3 9.9 4.3
2015-Feb-28 19:00N 54°36' W 005°54'0 0.0 980.9 10.4 8.9
2015-Feb-28 17:00N 54°36' W 005°54'0 0.0 984.4 8.4 6.8
2015-Feb-28 16:00N 54°36' W 005°54'0 0.0 987.1 7.4 6.0
2015-Feb-28 15:00N 54°36' W 005°54'0 0.0 989.6 7.5 5.3
2015-Feb-28 14:00N 54°36' W 005°54'0 0.0 992.7 8.5 4.4
2015-Feb-28 13:00N 54°36' W 005°54'0 0.0 995.2 8.6 4.3
2015-Feb-28 12:00N 54°36' W 005°54'0 0.0 997.4 7.8 4.7
2015-Feb-28 09:00N 54°36' W 005°54'0 0.0 1000.9 7.2 4.2
2015-Feb-28 08:00N 54°36' W 005°54'0 0.0 1001.4 7.2 4.4
2015-Feb-28 07:00N 54°36' W 005°54'0 0.0 1002.6 7.4 5.0
2015-Feb-28 06:00N 54°36' W 005°54'0 0.0 1002.9 7.5 5.3
2015-Feb-28 04:00N 54°36' W 005°54'0 0.0 1003.6 7.4 5.6
2015-Feb-28 01:00N 54°36' W 005°54'0 0.0 1005.1 7.5 5.7
2015-Feb-27 22:00N 54°36' W 005°54'0 0.0 1005.8 7.4 4.3
2015-Feb-27 18:00N 54°36' W 005°54'0 0.0 1008.9 7.1 1.1
2015-Feb-27 17:00N 54°36' W 005°54'0 0.0 1009.6 7.5 0.3
2015-Feb-27 16:00N 54°36' W 005°54'0 0.0 1011.0 7.5 0.4
2015-Feb-27 15:00N 54°36' W 005°54'0 0.0 1012.6 7.6 1.0
2015-Feb-27 14:00N 54°36' W 005°54'0 0.0 1013.0 7.0 1.2
2015-Feb-27 13:00N 54°36' W 005°54'0 0.0 1013.9 7.0 0.9
2015-Feb-27 12:00N 54°36' W 005°54'0 0.0 1015.4 5.8 0.8
2015-Feb-27 11:00N 54°36' W 005°54'0 0.0 1015.7 4.9 0.8
2015-Feb-27 10:00N 54°36' W 005°54'0 0.0 1015.2 4.0 0.5
2015-Feb-27 09:00N 54°36' W 005°54'0 0.0 1015.8 2.6 0.1
2015-Feb-27 05:00N 54°36' W 005°54'0 0.0 1014.4 2.2-0.0
2015-Feb-27 04:00N 54°36' W 005°54'0 0.0 1014.4 1.9-0.2
2015-Feb-27 03:00N 54°36' W 005°54'0 0.0 1014.6 2.1-0.1
2015-Feb-27 02:00N 54°36' W 005°54'0 0.0 1014.6 2.0-0.2
2015-Feb-27 01:00N 54°36' W 005°54'0 0.0 1014.1 2.2-0.2
2015-Feb-27 00:00N 54°36' W 005°54'0 0.0 1014.1 2.4-0.0
2015-Feb-26 20:00N 54°36' W 005°54'0 0.0 1012.3 2.5-0.9
2015-Feb-26 18:00N 54°36' W 005°54'0 0.0 1011.1 4.1-1.0
2015-Feb-26 17:00N 54°36' W 005°54'0 0.0 1010.3 4.3-0.9
2015-Feb-26 16:00N 54°36' W 005°54'0 0.0 1010.0 5.4-0.4
2015-Feb-26 15:00N 54°36' W 005°54'0 0.0 1009.8 5.4-0.7
2015-Feb-26 14:00N 54°36' W 005°54'0 0.0 1009.7 6.3 0.1
2015-Feb-26 13:00N 54°36' W 005°54'0 0.0 1009.3 5.6-0.1
2015-Feb-26 12:00N 54°36' W 005°54'0 0.0 1008.8 6.6-0.9
2015-Feb-26 11:00N 54°36' W 005°54'0 0.0 1008.3 6.0-0.4
2015-Feb-26 10:00N 54°36' W 005°54'0 0.0 1008.0 5.8 1.1
2015-Feb-26 09:00N 54°36' W 005°54'0 0.0 1007.1 5.6 1.7
2015-Feb-26 08:00N 54°36' W 005°54'0 0.0 1005.6 6.7 1.6
2015-Feb-26 06:00N 54°36' W 005°54'0 0.0 1003.6 7.3 4.1
2015-Feb-26 05:00N 54°36' W 005°54'0 0.0 1002.1 9.0 6.9
2015-Feb-26 04:00N 54°36' W 005°54'0 0.0 1001.0 11.310.0
2015-Feb-26 03:00N 54°36' W 005°54'0 0.0 1001.7 11.410.0
2015-Feb-26 02:00N 54°36' W 005°54'0 0.0 1002.8 11.5 9.8
2015-Feb-26 01:00N 54°36' W 005°54'0 0.0 1003.6 11.8 9.6
2015-Feb-25 22:00N 54°36' W 005°54'7 6.9 1006.3 11.4 9.2
2015-Feb-25 21:00N 54°42' W 005°48'3 3.5 1006.8 10.6 8.7
2015-Feb-25 20:00N 54°42' W 005°42'7 6.9 1007.1 10.1 8.4
2015-Feb-25 19:00N 54°42' W 005°30'7 6.9 1008.8 10.3 9.1
2015-Feb-25 18:00N 54°36' W 005°24'7 6.9 1009.1 9.1 8.0
2015-Feb-25 17:00N 54°30' W 005°18'1212.0 1009.4 8.8 7.9
2015-Feb-25 16:00N 54°18' W 005°18'6 6.0 1010.0 8.7 7.8
2015-Feb-25 15:00N 54°12' W 005°18'4 3.5 1011.0 8.2 7.5
2015-Feb-25 14:00N 54°12' W 005°24'7 7.0 1011.5 7.7 6.6
2015-Feb-25 13:00N 54°06' W 005°30'1212.0 1012.6 8.8 7.1
2015-Feb-25 12:00N 53°54' W 005°30'7 3.5 1013.2 8.3 6.8
2015-Feb-25 10:00N 53°48' W 005°36'0 0.0 1013.4 7.8 6.5
2015-Feb-25 09:00N 53°48' W 005°36'0 0.0 1012.6 7.7 6.4
2015-Feb-25 08:00N 53°48' W 005°36'0 0.0 1011.9 7.6 6.2
2015-Feb-25 07:00N 53°48' W 005°36'7 7.0 1010.9 7.6 6.0
2015-Feb-25 06:00N 53°42' W 005°42'7 7.0 1009.8 7.6 5.8
2015-Feb-25 05:00N 53°48' W 005°48'6 6.0 1009.1 7.4 5.5
2015-Feb-25 04:00N 53°42' W 005°48'0 0.0 1008.8 7.4 5.5
2015-Feb-25 03:00N 53°42' W 005°48'0 0.0 1008.7 7.2 5.3
2015-Feb-25 02:00N 53°42' W 005°48'6 6.0 1008.6 7.2 5.2
2015-Feb-25 01:00N 53°36' W 005°48'0 0.0 1008.6 6.9 4.7
2015-Feb-25 00:00N 53°36' W 005°48'6 6.0 1008.5 7.3 4.4
2015-Feb-24 23:00N 53°30' W 005°48'6 6.0 1008.6 7.6 4.5
2015-Feb-24 22:00N 53°24' W 005°48'4 3.6 1008.9 7.8 4.6
2015-Feb-24 21:00N 53°24' W 005°42'4 3.6 1009.5 7.6 3.8
2015-Feb-24 20:00N 53°24' W 005°36'9 9.3 1010.0 7.5 3.2
2015-Feb-24 19:00N 53°18' W 005°48'1212.0 1009.6 7.0 2.9
2015-Feb-24 18:00N 53°30' W 005°48'4 3.6 1008.5 6.8 2.3
2015-Feb-24 17:00N 53°30' W 005°42'7 7.0 1007.4 6.7 1.5
2015-Feb-24 16:00N 53°36' W 005°48'7 7.0 1007.3 7.2 2.4
2015-Feb-24 15:00N 53°42' W 005°54'6 6.0 1006.8 7.2 2.3
2015-Feb-24 14:00N 53°48' W 005°54'7 7.1 1005.4 4.2 1.9
2015-Feb-24 13:00N 53°48' W 005°42'7 7.0 1003.4 4.6 1.0
2015-Feb-24 12:00N 53°54' W 005°48'7 7.1 1004.1 5.4 1.0
2015-Feb-24 11:00N 53°54' W 006°00'7 7.0 1002.2 5.2 1.1
2015-Feb-24 10:00N 54°00' W 005°54'7 7.1 999.8 4.7 0.8
2015-Feb-24 09:00N 54°00' W 005°42'7 3.5 999.7 4.4 2.0
2015-Feb-24 07:00N 54°06' W 005°36'4 3.5 996.7 4.4 1.7
2015-Feb-24 06:00N 54°06' W 005°42'7 7.0 995.4 5.7 2.5
2015-Feb-24 05:00N 54°00' W 005°48'4 3.5 994.2 6.5 2.7
2015-Feb-24 04:00N 54°00' W 005°54'7 7.0 993.0 6.1 2.3
2015-Feb-24 03:00N 53°54' W 006°00'0 0.0 991.9 5.3 2.7
2015-Feb-24 02:00N 53°54' W 006°00'7 7.0 990.3 5.1 2.4
2015-Feb-24 01:00N 53°48' W 006°06'0 0.0 988.3 4.9 2.0
2015-Feb-24 00:00N 53°48' W 006°06'6 6.0 987.0 4.4 1.9
2015-Feb-23 23:00N 53°42' W 006°06'7 7.0 985.3 5.0 1.9
2015-Feb-23 22:00N 53°36' W 006°00'7 7.0 983.5 4.3 1.9
2015-Feb-23 21:00N 53°30' W 005°54'6 6.0 979.8 5.3 2.1
2015-Feb-23 20:00N 53°24' W 005°54'4 3.6 981.0 6.4 1.4
2015-Feb-23 19:00N 53°24' W 006°00'6 6.0 980.8 5.9 2.1
2015-Feb-23 18:00N 53°30' W 006°00'4 3.6 978.7 6.0 2.5
2015-Feb-23 17:00N 53°30' W 005°54'6 6.0 977.4 5.6 2.6
2015-Feb-23 16:00N 53°36' W 005°54'4 3.6 977.7 5.4 2.1
2015-Feb-23 15:00N 53°36' W 006°00'4 3.6 977.9 5.7 1.6
2015-Feb-23 14:00N 53°36' W 006°06'6 6.0 976.1 5.2 0.6
2015-Feb-23 13:00N 53°42' W 006°06'7 7.0 978.1 5.0 0.2
2015-Feb-23 12:00N 53°48' W 006°00'4 3.5 977.6 4.5 0.4
2015-Feb-23 11:00N 53°48' W 006°06'7 7.0 979.6 4.4 0.3
2015-Feb-23 10:00N 53°54' W 006°12'7 7.0 979.4 3.2-0.0
2015-Feb-23 09:00N 54°00' W 006°06'4 3.5 979.7 3.1 0.2
2015-Feb-23 08:00N 54°00' W 006°00'7 7.0 979.7 3.1 0.1
2015-Feb-23 07:00N 54°06' W 005°54'4 3.5 979.5 3.3 0.5
2015-Feb-23 06:00N 54°06' W 005°48'9 9.2 979.5 3.5 0.6
2015-Feb-23 05:00N 54°12' W 005°36'4 3.5 979.5 3.4-0.0
2015-Feb-23 04:00N 54°12' W 005°30'7 6.9 979.7 3.8 0.4
2015-Feb-23 03:00N 54°18' W 005°24'7 6.9 980.1 3.7 0.4
2015-Feb-23 02:00N 54°24' W 005°18'1212.5 980.3 4.2-0.7
2015-Feb-23 01:00N 54°36' W 005°24'7 6.9 981.1 4.1-0.0
2015-Feb-23 00:00N 54°42' W 005°30'1010.4 981.7 4.5 0.3
2015-Feb-22 23:00N 54°42' W 005°48'7 6.9 983.1 3.0-0.0
2015-Feb-22 22:00N 54°36' W 005°54'0 0.0 983.3 3.2-0.1
2015-Feb-22 21:00N 54°36' W 005°54'0 0.0 983.0 3.7 1.1
2015-Feb-22 19:00N 54°36' W 005°54'0 0.0 982.6 5.6 2.9
2015-Feb-22 18:00N 54°36' W 005°54'0 0.0 981.5 6.0 3.2
2015-Feb-22 17:00N 54°36' W 005°54'0 0.0 980.7 8.9 5.5
2015-Feb-22 15:00N 54°36' W 005°54'0 0.0 982.6 9.4 7.1
2015-Feb-22 14:00N 54°36' W 005°54'0 0.0 983.3 7.6 6.2
2015-Feb-22 13:00N 54°36' W 005°54'0 0.0 985.1 6.9 5.2
2015-Feb-22 11:00N 54°36' W 005°54'0 0.0 990.2 4.8 3.2
2015-Feb-22 10:00N 54°36' W 005°54'0 0.0 993.1 4.2 2.3
2015-Feb-22 09:00N 54°36' W 005°54'0 0.0 995.6 3.0 1.3
2015-Feb-22 06:00N 54°36' W 005°54'0 0.0 1001.0 2.1-0.6
2015-Feb-22 05:00N 54°36' W 005°54'0 0.0 1002.0 2.1-0.4
2015-Feb-22 04:00N 54°36' W 005°54'0 0.0 1002.9 1.5-0.8
2015-Feb-22 03:00N 54°36' W 005°54'0 0.0 1003.3 1.6-1.0
2015-Feb-22 00:00N 54°36' W 005°54'0 0.0 1004.8 3.7 0.1
2015-Feb-21 23:00N 54°36' W 005°54'0 0.0 1004.6 3.5 0.4
2015-Feb-21 22:00N 54°36' W 005°54'0 0.0 1004.5 3.6 0.2
2015-Feb-21 20:00N 54°36' W 005°54'0 0.0 1004.4 4.0-0.2
2015-Feb-21 16:00N 54°36' W 005°54'0 0.0 1002.7 5.7-0.8
2015-Feb-21 15:00N 54°36' W 005°54'0 0.0 1002.6 5.7-0.4
2015-Feb-21 13:00N 54°36' W 005°54'0 0.0 1002.4 4.3 0.2
2015-Feb-21 12:00N 54°36' W 005°54'0 0.0 1002.5 3.7 0.9
2015-Feb-21 09:00N 54°36' W 005°54'0 0.0 1001.8 2.0-0.1
2015-Feb-21 07:00N 54°36' W 005°54'0 0.0 1000.8 2.1-0.2
2015-Feb-21 05:00N 54°36' W 005°54'0 0.0 999.7 2.2-0.5
2015-Feb-21 03:00N 54°36' W 005°54'0 0.0 999.9 2.0 0.1
2015-Feb-21 02:00N 54°36' W 005°54'0 0.0 999.8 1.9-0.0
2015-Feb-21 01:00N 54°36' W 005°54'0 0.0 1000.1 2.2-0.2
2015-Feb-21 00:00N 54°36' W 005°54'0 0.0 1000.1 2.4 0.2
2015-Feb-20 23:00N 54°36' W 005°54'0 0.0 1000.1 2.8 0.3
2015-Feb-20 20:00N 54°36' W 005°54'0 0.0 1000.7 4.1 0.3
2015-Feb-20 18:00N 54°36' W 005°54'0 0.0 1000.8 5.3 0.6
2015-Feb-20 17:00N 54°36' W 005°54'0 0.0 1001.0 5.8 0.7
2015-Feb-20 16:00N 54°36' W 005°54'7 2.3 1001.2 6.6 1.0
2015-Feb-20 13:00N 54°42' W 005°48'1010.4 1001.7 4.8 1.2
2015-Feb-20 12:00N 54°42' W 005°30'12 6.2 1001.2 4.7 1.2
2015-Feb-20 10:00N 54°30' W 005°24'6 3.0 1004.0 4.1 1.2
2015-Feb-20 08:00N 54°24' W 005°24'21 3.0 1005.2 4.5 1.2
2015-Feb-20 01:00N 54°42' W 005°42'   1006.7 4.6 1.7
Track history (hours):
 
Tides and Currents Weather Stations Pressure Air Temp Water Temp Dewpoint Dewpoint Depression Visibility Wind Speed Wind Dir Waves Ship Positions

Callsign AMOUK29 (name unknown)

Last reported at 2015-Mar-02 01:00 UTC. Time now 2015-Mar-02 03:35 UTC.
Position N 54°36' W 005°24'.

Barometer 994.7 mb
Air temperature 2.9 ° C
Dewpoint -0.4 ° C

Date/timePositionNaut miles runAvg speedWind from/ knotsBaromVisibWave heightAir tempDewpointWater temp
2015-Mar-02 01:00N 54°36' W 005°24'9 9.2 994.7 2.9-0.4
2015-Mar-02 00:00N 54°42' W 005°36'7 6.9 995.2 2.6-0.4
2015-Mar-01 23:00N 54°42' W 005°48'7 6.9 994.1 4.3 0.4
2015-Mar-01 22:00N 54°36' W 005°54'0 0.0 994.4 2.7-0.8
2015-Mar-01 20:00N 54°36' W 005°54'0 0.0 993.2 3.2-1.1
2015-Mar-01 17:00N 54°36' W 005°54'0 0.0 991.3 4.3-1.1
2015-Mar-01 16:00N 54°36' W 005°54'0 0.0 991.2 5.0 1.2
2015-Mar-01 14:00N 54°36' W 005°54'0 0.0 991.0 4.2 1.0
2015-Mar-01 13:00N 54°36' W 005°54'0 0.0 990.7 6.8 0.2
2015-Mar-01 10:00N 54°36' W 005°54'0 0.0 991.6 5.4 0.6
2015-Mar-01 09:00N 54°36' W 005°54'0 0.0 990.9 4.2 0.2
2015-Mar-01 06:00N 54°36' W 005°54'0 0.0 989.9 3.9 1.2
2015-Mar-01 04:00N 54°36' W 005°54'0 0.0 988.9 4.6 1.4
2015-Mar-01 02:00N 54°36' W 005°54'0 0.0 988.3 5.2 2.2
2015-Mar-01 00:00N 54°36' W 005°54'0 0.0 986.1 6.4 2.2
2015-Feb-28 23:00N 54°36' W 005°54'0 0.0 984.9 7.1 2.6
2015-Feb-28 22:00N 54°36' W 005°54'0 0.0 983.6 8.0 3.2
2015-Feb-28 20:00N 54°36' W 005°54'0 0.0 981.3 9.9 4.3
2015-Feb-28 19:00N 54°36' W 005°54'0 0.0 980.9 10.4 8.9
2015-Feb-28 17:00N 54°36' W 005°54'0 0.0 984.4 8.4 6.8
2015-Feb-28 16:00N 54°36' W 005°54'0 0.0 987.1 7.4 6.0
2015-Feb-28 15:00N 54°36' W 005°54'0 0.0 989.6 7.5 5.3
2015-Feb-28 14:00N 54°36' W 005°54'0 0.0 992.7 8.5 4.4
2015-Feb-28 13:00N 54°36' W 005°54'0 0.0 995.2 8.6 4.3
2015-Feb-28 12:00N 54°36' W 005°54'0 0.0 997.4 7.8 4.7
2015-Feb-28 09:00N 54°36' W 005°54'0 0.0 1000.9 7.2 4.2
2015-Feb-28 08:00N 54°36' W 005°54'0 0.0 1001.4 7.2 4.4
2015-Feb-28 07:00N 54°36' W 005°54'0 0.0 1002.6 7.4 5.0
2015-Feb-28 06:00N 54°36' W 005°54'0 0.0 1002.9 7.5 5.3
2015-Feb-28 04:00N 54°36' W 005°54'0 0.0 1003.6 7.4 5.6
2015-Feb-28 01:00N 54°36' W 005°54'0 0.0 1005.1 7.5 5.7
2015-Feb-27 22:00N 54°36' W 005°54'0 0.0 1005.8 7.4 4.3
2015-Feb-27 18:00N 54°36' W 005°54'0 0.0 1008.9 7.1 1.1
2015-Feb-27 17:00N 54°36' W 005°54'0 0.0 1009.6 7.5 0.3
2015-Feb-27 16:00N 54°36' W 005°54'0 0.0 1011.0 7.5 0.4
2015-Feb-27 15:00N 54°36' W 005°54'0 0.0 1012.6 7.6 1.0
2015-Feb-27 14:00N 54°36' W 005°54'0 0.0 1013.0 7.0 1.2
2015-Feb-27 13:00N 54°36' W 005°54'0 0.0 1013.9 7.0 0.9
2015-Feb-27 12:00N 54°36' W 005°54'0 0.0 1015.4 5.8 0.8
2015-Feb-27 11:00N 54°36' W 005°54'0 0.0 1015.7 4.9 0.8
2015-Feb-27 10:00N 54°36' W 005°54'0 0.0 1015.2 4.0 0.5
2015-Feb-27 09:00N 54°36' W 005°54'0 0.0 1015.8 2.6 0.1
2015-Feb-27 05:00N 54°36' W 005°54'0 0.0 1014.4 2.2-0.0
2015-Feb-27 04:00N 54°36' W 005°54'0 0.0 1014.4 1.9-0.2
2015-Feb-27 03:00N 54°36' W 005°54'0 0.0 1014.6 2.1-0.1
2015-Feb-27 02:00N 54°36' W 005°54'0 0.0 1014.6 2.0-0.2
2015-Feb-27 01:00N 54°36' W 005°54'0 0.0 1014.1 2.2-0.2
2015-Feb-27 00:00N 54°36' W 005°54'0 0.0 1014.1 2.4-0.0
2015-Feb-26 20:00N 54°36' W 005°54'0 0.0 1012.3 2.5-0.9
2015-Feb-26 18:00N 54°36' W 005°54'0 0.0 1011.1 4.1-1.0
2015-Feb-26 17:00N 54°36' W 005°54'0 0.0 1010.3 4.3-0.9
2015-Feb-26 16:00N 54°36' W 005°54'0 0.0 1010.0 5.4-0.4
2015-Feb-26 15:00N 54°36' W 005°54'0 0.0 1009.8 5.4-0.7
2015-Feb-26 14:00N 54°36' W 005°54'0 0.0 1009.7 6.3 0.1
2015-Feb-26 13:00N 54°36' W 005°54'0 0.0 1009.3 5.6-0.1
2015-Feb-26 12:00N 54°36' W 005°54'0 0.0 1008.8 6.6-0.9
2015-Feb-26 11:00N 54°36' W 005°54'0 0.0 1008.3 6.0-0.4
2015-Feb-26 10:00N 54°36' W 005°54'0 0.0 1008.0 5.8 1.1
2015-Feb-26 09:00N 54°36' W 005°54'0 0.0 1007.1 5.6 1.7
2015-Feb-26 08:00N 54°36' W 005°54'0 0.0 1005.6 6.7 1.6
2015-Feb-26 06:00N 54°36' W 005°54'0 0.0 1003.6 7.3 4.1
2015-Feb-26 05:00N 54°36' W 005°54'0 0.0 1002.1 9.0 6.9
2015-Feb-26 04:00N 54°36' W 005°54'0 0.0 1001.0 11.310.0
2015-Feb-26 03:00N 54°36' W 005°54'0 0.0 1001.7 11.410.0
2015-Feb-26 02:00N 54°36' W 005°54'0 0.0 1002.8 11.5 9.8
2015-Feb-26 01:00N 54°36' W 005°54'0 0.0 1003.6 11.8 9.6
2015-Feb-25 22:00N 54°36' W 005°54'7 6.9 1006.3 11.4 9.2
2015-Feb-25 21:00N 54°42' W 005°48'3 3.5 1006.8 10.6 8.7
2015-Feb-25 20:00N 54°42' W 005°42'7 6.9 1007.1 10.1 8.4
2015-Feb-25 19:00N 54°42' W 005°30'7 6.9 1008.8 10.3 9.1
2015-Feb-25 18:00N 54°36' W 005°24'7 6.9 1009.1 9.1 8.0
2015-Feb-25 17:00N 54°30' W 005°18'1212.0 1009.4 8.8 7.9
2015-Feb-25 16:00N 54°18' W 005°18'6 6.0 1010.0 8.7 7.8
2015-Feb-25 15:00N 54°12' W 005°18'4 3.5 1011.0 8.2 7.5
2015-Feb-25 14:00N 54°12' W 005°24'7 7.0 1011.5 7.7 6.6
2015-Feb-25 13:00N 54°06' W 005°30'1212.0 1012.6 8.8 7.1
2015-Feb-25 12:00N 53°54' W 005°30'7 3.5 1013.2 8.3 6.8
2015-Feb-25 10:00N 53°48' W 005°36'0 0.0 1013.4 7.8 6.5
2015-Feb-25 09:00N 53°48' W 005°36'0 0.0 1012.6 7.7 6.4
2015-Feb-25 08:00N 53°48' W 005°36'0 0.0 1011.9 7.6 6.2
2015-Feb-25 07:00N 53°48' W 005°36'7 7.0 1010.9 7.6 6.0
2015-Feb-25 06:00N 53°42' W 005°42'7 7.0 1009.8 7.6 5.8
2015-Feb-25 05:00N 53°48' W 005°48'6 6.0 1009.1 7.4 5.5
2015-Feb-25 04:00N 53°42' W 005°48'0 0.0 1008.8 7.4 5.5
2015-Feb-25 03:00N 53°42' W 005°48'0 0.0 1008.7 7.2 5.3
2015-Feb-25 02:00N 53°42' W 005°48'6 6.0 1008.6 7.2 5.2
2015-Feb-25 01:00N 53°36' W 005°48'0 0.0 1008.6 6.9 4.7
2015-Feb-25 00:00N 53°36' W 005°48'6 6.0 1008.5 7.3 4.4
2015-Feb-24 23:00N 53°30' W 005°48'6 6.0 1008.6 7.6 4.5
2015-Feb-24 22:00N 53°24' W 005°48'4 3.6 1008.9 7.8 4.6
2015-Feb-24 21:00N 53°24' W 005°42'4 3.6 1009.5 7.6 3.8
2015-Feb-24 20:00N 53°24' W 005°36'9 9.3 1010.0 7.5 3.2
2015-Feb-24 19:00N 53°18' W 005°48'1212.0 1009.6 7.0 2.9
2015-Feb-24 18:00N 53°30' W 005°48'4 3.6 1008.5 6.8 2.3
2015-Feb-24 17:00N 53°30' W 005°42'7 7.0 1007.4 6.7 1.5
2015-Feb-24 16:00N 53°36' W 005°48'7 7.0 1007.3 7.2 2.4
2015-Feb-24 15:00N 53°42' W 005°54'6 6.0 1006.8 7.2 2.3
2015-Feb-24 14:00N 53°48' W 005°54'7 7.1 1005.4 4.2 1.9
2015-Feb-24 13:00N 53°48' W 005°42'7 7.0 1003.4 4.6 1.0
2015-Feb-24 12:00N 53°54' W 005°48'7 7.1 1004.1 5.4 1.0
2015-Feb-24 11:00N 53°54' W 006°00'7 7.0 1002.2 5.2 1.1
2015-Feb-24 10:00N 54°00' W 005°54'7 7.1 999.8 4.7 0.8
2015-Feb-24 09:00N 54°00' W 005°42'7 3.5 999.7 4.4 2.0
2015-Feb-24 07:00N 54°06' W 005°36'4 3.5 996.7 4.4 1.7
2015-Feb-24 06:00N 54°06' W 005°42'7 7.0 995.4 5.7 2.5
2015-Feb-24 05:00N 54°00' W 005°48'4 3.5 994.2 6.5 2.7
2015-Feb-24 04:00N 54°00' W 005°54'7 7.0 993.0 6.1 2.3
2015-Feb-24 03:00N 53°54' W 006°00'0 0.0 991.9 5.3 2.7
2015-Feb-24 02:00N 53°54' W 006°00'7 7.0 990.3 5.1 2.4
2015-Feb-24 01:00N 53°48' W 006°06'0 0.0 988.3 4.9 2.0
2015-Feb-24 00:00N 53°48' W 006°06'6 6.0 987.0 4.4 1.9
2015-Feb-23 23:00N 53°42' W 006°06'7 7.0 985.3 5.0 1.9
2015-Feb-23 22:00N 53°36' W 006°00'7 7.0 983.5 4.3 1.9
2015-Feb-23 21:00N 53°30' W 005°54'6 6.0 979.8 5.3 2.1
2015-Feb-23 20:00N 53°24' W 005°54'4 3.6 981.0 6.4 1.4
2015-Feb-23 19:00N 53°24' W 006°00'6 6.0 980.8 5.9 2.1
2015-Feb-23 18:00N 53°30' W 006°00'4 3.6 978.7 6.0 2.5
2015-Feb-23 17:00N 53°30' W 005°54'6 6.0 977.4 5.6 2.6
2015-Feb-23 16:00N 53°36' W 005°54'4 3.6 977.7 5.4 2.1
2015-Feb-23 15:00N 53°36' W 006°00'4 3.6 977.9 5.7 1.6
2015-Feb-23 14:00N 53°36' W 006°06'6 6.0 976.1 5.2 0.6
2015-Feb-23 13:00N 53°42' W 006°06'7 7.0 978.1 5.0 0.2
2015-Feb-23 12:00N 53°48' W 006°00'4 3.5 977.6 4.5 0.4
2015-Feb-23 11:00N 53°48' W 006°06'7 7.0 979.6 4.4 0.3
2015-Feb-23 10:00N 53°54' W 006°12'7 7.0 979.4 3.2-0.0
2015-Feb-23 09:00N 54°00' W 006°06'4 3.5 979.7 3.1 0.2
2015-Feb-23 08:00N 54°00' W 006°00'7 7.0 979.7 3.1 0.1
2015-Feb-23 07:00N 54°06' W 005°54'4 3.5 979.5 3.3 0.5
2015-Feb-23 06:00N 54°06' W 005°48'9 9.2 979.5 3.5 0.6
2015-Feb-23 05:00N 54°12' W 005°36'4 3.5 979.5 3.4-0.0
2015-Feb-23 04:00N 54°12' W 005°30'7 6.9 979.7 3.8 0.4
2015-Feb-23 03:00N 54°18' W 005°24'7 6.9 980.1 3.7 0.4
2015-Feb-23 02:00N 54°24' W 005°18'1212.5 980.3 4.2-0.7
2015-Feb-23 01:00N 54°36' W 005°24'7 6.9 981.1 4.1-0.0
2015-Feb-23 00:00N 54°42' W 005°30'1010.4 981.7 4.5 0.3
2015-Feb-22 23:00N 54°42' W 005°48'7 6.9 983.1 3.0-0.0
2015-Feb-22 22:00N 54°36' W 005°54'0 0.0 983.3 3.2-0.1
2015-Feb-22 21:00N 54°36' W 005°54'0 0.0 983.0 3.7 1.1
2015-Feb-22 19:00N 54°36' W 005°54'0 0.0 982.6 5.6 2.9
2015-Feb-22 18:00N 54°36' W 005°54'0 0.0 981.5 6.0 3.2
2015-Feb-22 17:00N 54°36' W 005°54'0 0.0 980.7 8.9 5.5
2015-Feb-22 15:00N 54°36' W 005°54'0 0.0 982.6 9.4 7.1
2015-Feb-22 14:00N 54°36' W 005°54'0 0.0 983.3 7.6 6.2
2015-Feb-22 13:00N 54°36' W 005°54'0 0.0 985.1 6.9 5.2
2015-Feb-22 11:00N 54°36' W 005°54'0 0.0 990.2 4.8 3.2
2015-Feb-22 10:00N 54°36' W 005°54'0 0.0 993.1 4.2 2.3
2015-Feb-22 09:00N 54°36' W 005°54'0 0.0 995.6 3.0 1.3
2015-Feb-22 06:00N 54°36' W 005°54'0 0.0 1001.0 2.1-0.6
2015-Feb-22 05:00N 54°36' W 005°54'0 0.0 1002.0 2.1-0.4
2015-Feb-22 04:00N 54°36' W 005°54'0 0.0 1002.9 1.5-0.8
2015-Feb-22 03:00N 54°36' W 005°54'0 0.0 1003.3 1.6-1.0
2015-Feb-22 00:00N 54°36' W 005°54'0 0.0 1004.8 3.7 0.1
2015-Feb-21 23:00N 54°36' W 005°54'0 0.0 1004.6 3.5 0.4
2015-Feb-21 22:00N 54°36' W 005°54'0 0.0 1004.5 3.6 0.2
2015-Feb-21 20:00N 54°36' W 005°54'0 0.0 1004.4 4.0-0.2
2015-Feb-21 16:00N 54°36' W 005°54'0 0.0 1002.7 5.7-0.8
2015-Feb-21 15:00N 54°36' W 005°54'0 0.0 1002.6 5.7-0.4
2015-Feb-21 13:00N 54°36' W 005°54'0 0.0 1002.4 4.3 0.2
2015-Feb-21 12:00N 54°36' W 005°54'0 0.0 1002.5 3.7 0.9
2015-Feb-21 09:00N 54°36' W 005°54'0 0.0 1001.8 2.0-0.1
2015-Feb-21 07:00N 54°36' W 005°54'0 0.0 1000.8 2.1-0.2
2015-Feb-21 05:00N 54°36' W 005°54'0 0.0 999.7 2.2-0.5
2015-Feb-21 03:00N 54°36' W 005°54'0 0.0 999.9 2.0 0.1
2015-Feb-21 02:00N 54°36' W 005°54'0 0.0 999.8 1.9-0.0
2015-Feb-21 01:00N 54°36' W 005°54'0 0.0 1000.1 2.2-0.2
2015-Feb-21 00:00N 54°36' W 005°54'0 0.0 1000.1 2.4 0.2
2015-Feb-20 23:00N 54°36' W 005°54'0 0.0 1000.1 2.8 0.3
2015-Feb-20 20:00N 54°36' W 005°54'0 0.0 1000.7 4.1 0.3
2015-Feb-20 18:00N 54°36' W 005°54'0 0.0 1000.8 5.3 0.6
2015-Feb-20 17:00N 54°36' W 005°54'0 0.0 1001.0 5.8 0.7
2015-Feb-20 16:00N 54°36' W 005°54'7 2.3 1001.2 6.6 1.0
2015-Feb-20 13:00N 54°42' W 005°48'1010.4 1001.7 4.8 1.2
2015-Feb-20 12:00N 54°42' W 005°30'12 6.2 1001.2 4.7 1.2
2015-Feb-20 10:00N 54°30' W 005°24'6 3.0 1004.0 4.1 1.2
2015-Feb-20 08:00N 54°24' W 005°24'21 3.0 1005.2 4.5 1.2
2015-Feb-20 01:00N 54°42' W 005°42'   1006.7 4.6 1.7

Dump ship's entire track history